首页
METAR-TAF:

METAR-TAF

机场 :

納杰夫, 伊拉克

纬度: 31-59-23N, 经度: 44-24-15E, 海拔: 31米

当前天气观测

该预报发布于54分钟前的07:00 UTC
风速5节,风向南转西南
温度 23°C
湿度 41%
气压 1016 hPa
能見度: 8000

METAR: ORNI 030700Z 21005KT 8000 NSC 23/09 Q1016 NOSIG

时间: 10:54 (07:54 UTC)

预报

该预报发布于3小时和54分钟前的04:00 UTC
预报有效从03日的 06点(UTC)到 04日的 06点(UTC)
风速3节,风向多变
能見度: 8000
散云层高于4000英尺

TAF: ORNI 030400Z 0306/0406 VRB03KT 8000 SCT040

超过4000个机场的气象观测和天气预报(METAR&TAF报告)。

可查询的气象台以黄色和红色小点在地图上表示。

将鼠标移到小点上方,可查看气象台名称。

然后点击查看天气观测和预报。

如需切换地图:点击带黑十字的绿色按钮放大地图;点击带横线的绿色按钮缩小地图;或者点击绿色箭头查看邻近地区的地图。


METAR-TAF: